createdAt,value
2022-11-29T00:00:09.087Z,69.16
2022-11-29T00:02:10.889Z,69.46
2022-11-29T00:04:12.698Z,69.29
2022-11-29T00:06:16.496Z,68.72
2022-11-29T00:08:19.219Z,69.27
2022-11-29T00:10:20.820Z,69.16
2022-11-29T00:12:22.522Z,69.60
2022-11-29T00:14:25.669Z,69.03
2022-11-29T00:16:27.359Z,69.17
2022-11-29T00:18:28.971Z,69.51
2022-11-29T00:20:31.267Z,68.56
2022-11-29T00:22:32.865Z,69.10
2022-11-29T00:24:34.703Z,68.87
2022-11-29T00:26:37.308Z,69.07
2022-11-29T00:28:38.879Z,69.39
2022-11-29T00:30:40.611Z,68.56
2022-11-29T00:32:42.228Z,68.55
2022-11-29T00:34:44.328Z,69.13
2022-11-29T00:36:46.135Z,68.94
2022-11-29T00:38:47.788Z,68.97
2022-11-29T00:40:52.748Z,69.24
2022-11-29T00:42:54.402Z,69.94
2022-11-29T00:44:56.047Z,70.69
2022-11-29T00:46:57.679Z,70.67
2022-11-29T00:48:59.266Z,70.58
2022-11-29T00:51:01.221Z,70.41
2022-11-29T00:53:02.880Z,69.81
2022-11-29T00:55:04.816Z,70.32
2022-11-29T00:57:06.376Z,69.91
2022-11-29T00:59:08.018Z,69.26
2022-11-29T01:01:10.662Z,69.98
2022-11-29T01:03:12.300Z,69.95
2022-11-29T01:05:13.988Z,69.40
2022-11-29T01:07:15.661Z,70.26
2022-11-29T01:09:17.734Z,69.69
2022-11-29T01:11:24.817Z,70.01
2022-11-29T01:13:26.402Z,70.35
2022-11-29T01:15:28.550Z,70.23
2022-11-29T01:17:30.211Z,69.73
2022-11-29T01:19:31.838Z,70.09
2022-11-29T01:21:33.929Z,69.94
2022-11-29T01:23:36.483Z,70.10
2022-11-29T01:25:38.151Z,70.41
2022-11-29T01:27:39.961Z,70.27
2022-11-29T01:29:41.729Z,70.51
2022-11-29T01:31:43.383Z,70.36
2022-11-29T01:33:45.048Z,70.83
2022-11-29T01:35:54.936Z,70.91
2022-11-29T01:37:56.628Z,71.19
2022-11-29T01:39:58.258Z,70.91
2022-11-29T01:42:00.802Z,70.46
2022-11-29T01:44:11.697Z,70.99
2022-11-29T01:46:13.337Z,71.24
2022-11-29T01:48:15.061Z,70.89
2022-11-29T01:50:17.127Z,70.95
2022-11-29T01:52:25.161Z,71.43
2022-11-29T01:54:27.362Z,71.00
2022-11-29T01:56:30.458Z,71.73
2022-11-29T01:58:32.696Z,71.46
2022-11-29T02:00:34.348Z,71.83
2022-11-29T02:02:58.540Z,71.84
2022-11-29T02:05:01.411Z,71.32
2022-11-29T02:07:03.699Z,71.29
2022-11-29T02:09:05.846Z,72.20
2022-11-29T02:11:10.606Z,71.83
2022-11-29T02:13:26.146Z,71.22
2022-11-29T02:15:43.725Z,70.69
2022-11-29T02:18:05.983Z,71.32
2022-11-29T02:20:16.689Z,72.07
2022-11-29T02:22:29.676Z,71.86
2022-11-29T02:24:40.251Z,72.05
2022-11-29T02:27:06.264Z,72.75
2022-11-29T02:30:01.926Z,73.11
2022-11-29T02:32:18.133Z,72.81
2022-11-29T02:34:51.686Z,73.18
2022-11-29T02:37:11.397Z,73.19
2022-11-29T02:39:16.640Z,73.20
2022-11-29T02:41:55.237Z,72.88
2022-11-29T02:44:42.678Z,72.54
2022-11-29T02:47:08.736Z,72.04
2022-11-29T02:49:50.349Z,72.39
2022-11-29T02:52:03.762Z,71.41
2022-11-29T02:54:32.283Z,71.86
2022-11-29T02:56:56.698Z,72.31
2022-11-29T02:59:14.394Z,72.75
2022-11-29T03:01:18.727Z,72.86
2022-11-29T03:03:28.140Z,72.81
2022-11-29T03:05:39.014Z,72.41
2022-11-29T03:07:46.845Z,72.25
2022-11-29T03:10:09.571Z,71.94
2022-11-29T03:12:17.690Z,72.00
2022-11-29T03:14:26.118Z,71.72
2022-11-29T03:16:45.883Z,72.27
2022-11-29T03:19:23.934Z,72.20
2022-11-29T03:21:31.283Z,72.18
2022-11-29T03:23:51.460Z,72.54
2022-11-29T03:25:56.120Z,72.50
2022-11-29T03:28:13.921Z,72.56
2022-11-29T03:30:18.683Z,72.33
2022-11-29T03:32:54.260Z,72.18
2022-11-29T03:35:10.526Z,72.47
2022-11-29T03:37:20.604Z,71.97
2022-11-29T03:39:49.976Z,71.86
2022-11-29T03:42:00.686Z,71.50
2022-11-29T03:44:11.563Z,71.13
2022-11-29T03:46:21.843Z,70.74
2022-11-29T03:48:31.587Z,71.12
2022-11-29T03:50:40.110Z,70.53
2022-11-29T03:52:52.599Z,70.30
2022-11-29T03:55:01.884Z,70.42
2022-11-29T03:57:03.881Z,69.57
2022-11-29T03:59:29.599Z,69.05
2022-11-29T04:02:01.203Z,69.15
2022-11-29T04:04:05.657Z,68.18
2022-11-29T04:06:21.856Z,67.96
2022-11-29T04:09:01.135Z,68.16
2022-11-29T04:11:21.162Z,68.01
2022-11-29T04:13:37.626Z,68.83
2022-11-29T04:15:57.331Z,68.83
2022-11-29T04:18:44.288Z,69.71
2022-11-29T04:21:01.673Z,70.05
2022-11-29T04:23:30.704Z,70.63
2022-11-29T04:25:55.733Z,70.56
2022-11-29T04:28:09.479Z,69.52
2022-11-29T04:30:24.386Z,70.01
2022-11-29T04:32:31.974Z,69.25
2022-11-29T04:34:57.492Z,68.89
2022-11-29T04:37:29.626Z,68.32
2022-11-29T04:39:46.304Z,68.74
2022-11-29T04:42:20.188Z,67.63
2022-11-29T04:44:31.895Z,68.18
2022-11-29T04:46:39.748Z,67.80
2022-11-29T04:49:00.404Z,67.80
2022-11-29T04:51:39.751Z,67.78
2022-11-29T04:54:07.892Z,68.17
2022-11-29T04:56:33.361Z,67.09
2022-11-29T04:58:42.351Z,67.43
2022-11-29T05:01:07.163Z,67.51
2022-11-29T05:03:17.508Z,68.08
2022-11-29T05:05:42.421Z,67.02
2022-11-29T05:07:53.182Z,68.47
2022-11-29T05:10:07.086Z,68.03
2022-11-29T05:12:28.288Z,68.66
2022-11-29T05:14:39.172Z,69.39
2022-11-29T05:16:55.992Z,69.84
2022-11-29T05:19:04.459Z,71.29
2022-11-29T05:21:43.032Z,71.42
2022-11-29T05:23:50.559Z,71.71
2022-11-29T05:26:01.237Z,71.57
2022-11-29T05:28:33.717Z,71.79
2022-11-29T05:30:47.496Z,71.80
2022-11-29T05:33:11.648Z,71.71
2022-11-29T05:35:46.752Z,72.22
2022-11-29T05:37:48.221Z,72.21
2022-11-29T05:40:04.220Z,72.09
2022-11-29T05:42:25.122Z,72.19
2022-11-29T05:44:38.151Z,71.88
2022-11-29T05:46:54.788Z,72.27
2022-11-29T05:49:05.424Z,72.34
2022-11-29T05:51:36.431Z,72.04
2022-11-29T05:54:10.312Z,71.80
2022-11-29T05:56:41.016Z,71.48
2022-11-29T05:58:59.684Z,71.32
2022-11-29T06:01:14.678Z,70.73
2022-11-29T06:03:25.123Z,70.77
2022-11-29T06:05:32.445Z,71.31
2022-11-29T06:07:51.778Z,70.94
2022-11-29T06:10:01.890Z,70.94
2022-11-29T06:12:16.907Z,71.26
2022-11-29T06:14:51.505Z,70.93
2022-11-29T06:17:16.343Z,70.70
2022-11-29T06:19:23.775Z,71.23
2022-11-29T06:21:40.792Z,71.87
2022-11-29T06:23:48.631Z,71.27
2022-11-29T06:25:53.416Z,71.39
2022-11-29T06:28:06.834Z,71.59
2022-11-29T06:30:10.181Z,72.18
2022-11-29T06:32:25.343Z,72.14
2022-11-29T06:34:36.056Z,72.25
2022-11-29T06:36:49.581Z,72.15
2022-11-29T06:38:51.482Z,71.96
2022-11-29T06:41:00.101Z,72.61
2022-11-29T06:43:04.014Z,72.24
2022-11-29T06:45:06.651Z,72.22
2022-11-29T06:47:44.649Z,72.72
2022-11-29T06:49:58.964Z,73.13
2022-11-29T06:52:00.378Z,73.22
2022-11-29T06:54:18.791Z,73.16
2022-11-29T06:56:32.343Z,72.82
2022-11-29T06:59:00.523Z,72.63
2022-11-29T07:01:29.784Z,72.63
2022-11-29T07:03:46.629Z,73.30
2022-11-29T07:05:48.627Z,72.37
2022-11-29T07:07:53.393Z,72.11
2022-11-29T07:09:59.666Z,72.79
2022-11-29T07:12:01.687Z,72.16
2022-11-29T07:14:03.727Z,71.60
2022-11-29T07:16:16.262Z,71.13
2022-11-29T07:18:24.680Z,71.42
2022-11-29T07:21:07.257Z,71.55
2022-11-29T07:23:36.390Z,70.32
2022-11-29T07:25:49.073Z,71.24
2022-11-29T07:28:05.570Z,70.83
2022-11-29T07:30:13.949Z,71.94
2022-11-29T07:32:34.333Z,71.56
2022-11-29T07:34:49.960Z,71.04
2022-11-29T07:37:06.205Z,70.88
2022-11-29T07:39:29.469Z,70.23
2022-11-29T07:41:55.796Z,69.42
2022-11-29T07:44:04.074Z,68.94
2022-11-29T07:46:05.819Z,68.17
2022-11-29T07:48:07.721Z,68.52
2022-11-29T07:50:09.738Z,68.46
2022-11-29T07:52:15.702Z,67.06
2022-11-29T07:54:19.142Z,67.85
2022-11-29T07:56:20.799Z,66.80
2022-11-29T07:58:22.468Z,67.10
2022-11-29T08:00:24.451Z,66.63
2022-11-29T08:02:30.951Z,66.88
2022-11-29T08:04:32.761Z,67.35
2022-11-29T08:06:34.821Z,66.47
2022-11-29T08:08:42.236Z,66.12
2022-11-29T08:10:45.522Z,65.62
2022-11-29T08:12:50.301Z,64.87
2022-11-29T08:14:52.055Z,65.03
2022-11-29T08:16:53.610Z,65.30
2022-11-29T08:18:55.568Z,65.88
2022-11-29T08:20:57.120Z,65.24
2022-11-29T08:22:59.683Z,66.24
2022-11-29T08:25:01.583Z,66.67
2022-11-29T08:27:03.249Z,66.23
2022-11-29T08:29:04.900Z,66.27
2022-11-29T08:31:08.946Z,66.20
2022-11-29T08:33:10.637Z,66.86
2022-11-29T08:35:12.374Z,66.49
2022-11-29T08:37:14.269Z,67.20
2022-11-29T08:39:15.972Z,67.05
2022-11-29T08:41:17.787Z,67.22
2022-11-29T08:43:19.459Z,67.07
2022-11-29T08:45:21.117Z,65.85
2022-11-29T08:47:37.891Z,65.92
2022-11-29T08:49:59.572Z,66.59
2022-11-29T08:52:19.741Z,66.50
2022-11-29T08:54:21.355Z,66.96
2022-11-29T08:57:10.080Z,67.91
2022-11-29T08:58:45.716Z,68.42
2022-11-29T09:00:47.555Z,68.92
2022-11-29T09:02:49.361Z,68.94
2022-11-29T09:04:50.980Z,69.70
2022-11-29T09:06:52.701Z,69.31
2022-11-29T09:08:56.609Z,68.75
2022-11-29T09:10:58.113Z,69.24
2022-11-29T09:12:59.665Z,69.47
2022-11-29T09:15:01.415Z,69.87
2022-11-29T09:17:03.054Z,70.46
2022-11-29T09:19:05.553Z,69.76
2022-11-29T09:21:12.369Z,68.93
2022-11-29T09:23:14.069Z,68.91
2022-11-29T09:25:15.722Z,69.30
2022-11-29T09:27:17.746Z,68.12
2022-11-29T09:29:19.476Z,68.28
2022-11-29T09:31:21.590Z,68.48
2022-11-29T09:33:23.284Z,68.20
2022-11-29T09:35:25.239Z,68.46
2022-11-29T09:37:26.964Z,67.84
2022-11-29T09:39:28.723Z,68.04
2022-11-29T09:41:46.988Z,68.30
2022-11-29T09:44:27.379Z,67.22
2022-11-29T09:46:46.884Z,66.55
2022-11-29T09:49:23.797Z,66.53
2022-11-29T09:51:50.086Z,67.17
2022-11-29T09:54:11.924Z,66.91
2022-11-29T09:56:29.307Z,67.50
2022-11-29T09:58:37.185Z,66.83
2022-11-29T10:00:46.783Z,66.66
2022-11-29T10:02:53.495Z,66.52
2022-11-29T10:05:00.675Z,66.57
2022-11-29T10:07:19.676Z,67.68
2022-11-29T10:09:38.754Z,67.81
2022-11-29T10:11:57.019Z,67.98
2022-11-29T10:14:21.567Z,68.18
2022-11-29T10:16:36.816Z,68.76
2022-11-29T10:18:45.420Z,68.55
2022-11-29T10:20:49.451Z,68.45
2022-11-29T10:22:57.039Z,68.31
2022-11-29T10:25:01.154Z,68.58
2022-11-29T10:27:05.493Z,69.60
2022-11-29T10:29:09.438Z,69.21
2022-11-29T10:31:27.447Z,68.80
2022-11-29T10:33:31.358Z,69.13
2022-11-29T10:35:32.874Z,69.32
2022-11-29T10:37:34.889Z,69.15
2022-11-29T10:39:43.926Z,69.68
2022-11-29T10:41:46.289Z,69.54
2022-11-29T10:43:48.764Z,69.32
2022-11-29T10:45:56.190Z,69.82
2022-11-29T10:48:12.236Z,70.22
2022-11-29T10:50:23.839Z,70.27
2022-11-29T10:52:25.586Z,70.92
2022-11-29T10:54:40.315Z,71.12
2022-11-29T10:56:44.063Z,71.32
2022-11-29T10:59:09.104Z,71.42
2022-11-29T11:01:13.569Z,71.12
2022-11-29T11:03:28.764Z,71.13
2022-11-29T11:05:30.593Z,69.96
2022-11-29T11:07:37.006Z,69.93
2022-11-29T11:09:47.580Z,70.09
2022-11-29T11:11:54.667Z,70.55
2022-11-29T11:14:06.126Z,70.56
2022-11-29T11:16:20.240Z,70.99
2022-11-29T11:18:24.327Z,71.54
2022-11-29T11:20:28.434Z,71.12
2022-11-29T11:22:31.386Z,70.71
2022-11-29T11:24:36.433Z,71.29
2022-11-29T11:26:45.098Z,71.48
2022-11-29T11:28:51.324Z,71.38
2022-11-29T11:31:13.133Z,71.29
2022-11-29T11:33:25.714Z,71.04
2022-11-29T11:35:27.401Z,70.83
2022-11-29T11:37:29.866Z,70.88
2022-11-29T11:39:32.280Z,71.80
2022-11-29T11:41:55.319Z,71.40
2022-11-29T11:43:59.174Z,70.62
2022-11-29T11:46:01.031Z,70.16
2022-11-29T11:48:05.703Z,69.86
2022-11-29T11:50:13.355Z,69.22
2022-11-29T11:52:21.208Z,69.13
2022-11-29T11:54:23.135Z,68.31
2022-11-29T11:56:26.174Z,68.38
2022-11-29T11:58:57.546Z,68.33
2022-11-29T12:01:10.946Z,68.30
2022-11-29T12:03:50.132Z,67.70
2022-11-29T12:05:54.651Z,67.33
2022-11-29T12:08:07.719Z,66.79
2022-11-29T12:10:21.306Z,67.14
2022-11-29T12:12:33.008Z,66.99
2022-11-29T12:14:47.598Z,67.38
2022-11-29T12:16:50.552Z,67.43
2022-11-29T12:18:58.756Z,67.71
2022-11-29T12:21:05.647Z,67.61
2022-11-29T12:23:12.927Z,68.13
2022-11-29T12:25:18.995Z,68.82
2022-11-29T12:27:20.684Z,68.46
2022-11-29T12:29:22.924Z,68.34
2022-11-29T12:31:41.752Z,68.79
2022-11-29T12:33:58.881Z,69.60
2022-11-29T12:36:00.417Z,70.02
2022-11-29T12:38:33.707Z,69.97
2022-11-29T12:40:47.634Z,69.80
2022-11-29T12:43:04.169Z,69.33
2022-11-29T12:45:55.612Z,68.97
2022-11-29T12:48:27.574Z,68.82
2022-11-29T12:50:40.865Z,68.83
2022-11-29T12:52:56.183Z,68.91
2022-11-29T12:55:04.324Z,68.77
2022-11-29T12:57:18.053Z,68.60
2022-11-29T12:59:32.662Z,68.42
2022-11-29T13:01:45.516Z,68.48
2022-11-29T13:04:24.765Z,69.87
2022-11-29T13:06:40.838Z,70.70
2022-11-29T13:08:42.414Z,71.36
2022-11-29T13:10:49.888Z,71.07
2022-11-29T13:13:18.809Z,70.82
2022-11-29T13:15:23.931Z,70.61
2022-11-29T13:17:43.083Z,71.08
2022-11-29T13:19:52.257Z,71.82
2022-11-29T13:21:53.934Z,72.57
2022-11-29T13:24:12.469Z,73.19
2022-11-29T13:26:15.107Z,72.69
2022-11-29T13:28:28.497Z,72.56
2022-11-29T13:30:30.435Z,71.37
2022-11-29T13:32:40.367Z,70.36
2022-11-29T13:34:45.773Z,71.52
2022-11-29T13:37:19.214Z,72.64
2022-11-29T13:39:42.552Z,72.97
2022-11-29T13:41:49.394Z,73.73
2022-11-29T13:43:55.627Z,73.60
2022-11-29T13:46:09.438Z,72.66
2022-11-29T13:48:27.756Z,72.80
2022-11-29T13:50:37.173Z,72.70
2022-11-29T13:52:46.624Z,72.74
2022-11-29T13:54:48.250Z,73.06
2022-11-29T13:57:01.847Z,72.95
2022-11-29T13:59:09.233Z,72.27
2022-11-29T14:01:12.819Z,71.77
2022-11-29T14:03:23.413Z,72.24
2022-11-29T14:05:27.450Z,71.70
2022-11-29T14:07:29.346Z,71.86
2022-11-29T14:09:33.873Z,71.52
2022-11-29T14:12:03.460Z,70.72
2022-11-29T14:14:24.539Z,70.23
2022-11-29T14:16:32.234Z,70.53
2022-11-29T14:18:36.921Z,71.74
2022-11-29T14:20:44.157Z,72.36
2022-11-29T14:23:04.310Z,72.66
2022-11-29T14:25:49.933Z,72.27
2022-11-29T14:27:55.556Z,71.81
2022-11-29T14:29:58.582Z,71.96
2022-11-29T14:32:00.158Z,71.35
2022-11-29T14:34:09.022Z,70.89
2022-11-29T14:36:38.393Z,71.56
2022-11-29T14:39:04.325Z,71.56
2022-11-29T14:41:17.995Z,71.52
2022-11-29T14:43:29.342Z,71.50
2022-11-29T14:45:33.422Z,71.21
2022-11-29T14:47:38.301Z,70.97
2022-11-29T14:49:42.276Z,70.87
2022-11-29T14:51:46.635Z,70.24
2022-11-29T14:54:12.274Z,70.25
2022-11-29T14:56:29.367Z,70.50
2022-11-29T14:58:30.953Z,70.54
2022-11-29T15:00:47.368Z,70.55
2022-11-29T15:02:52.800Z,70.91
2022-11-29T15:04:57.957Z,70.58
2022-11-29T15:07:00.483Z,71.12
2022-11-29T15:09:05.030Z,70.93
2022-11-29T15:11:34.460Z,71.52
2022-11-29T15:13:38.944Z,71.49
2022-11-29T15:16:02.985Z,71.29
2022-11-29T15:18:59.444Z,71.84
2022-11-29T15:21:15.990Z,71.66
2022-11-29T15:23:19.400Z,71.75
2022-11-29T15:25:27.633Z,71.61
2022-11-29T15:27:29.674Z,72.08
2022-11-29T15:29:32.092Z,72.13
2022-11-29T15:31:33.803Z,72.02
2022-11-29T15:33:40.178Z,72.14
2022-11-29T15:35:48.394Z,72.13
2022-11-29T15:37:50.318Z,72.08
2022-11-29T15:40:07.787Z,72.00
2022-11-29T15:42:14.410Z,72.54
2022-11-29T15:44:22.257Z,72.24
2022-11-29T15:46:26.879Z,72.22
2022-11-29T15:48:30.153Z,72.65
2022-11-29T15:50:33.155Z,72.24
2022-11-29T15:52:37.011Z,73.04
2022-11-29T15:54:39.342Z,72.71
2022-11-29T15:57:02.110Z,72.34
2022-11-29T15:59:24.499Z,72.13
2022-11-29T16:01:26.251Z,72.45
2022-11-29T16:03:30.940Z,72.59
2022-11-29T16:05:34.511Z,72.67
2022-11-29T16:07:37.353Z,71.80
2022-11-29T16:09:42.180Z,71.97
2022-11-29T16:11:44.444Z,72.07
2022-11-29T16:14:12.382Z,72.15
2022-11-29T16:16:17.791Z,72.18
2022-11-29T16:18:22.274Z,72.11
2022-11-29T16:20:25.667Z,72.21
2022-11-29T16:22:27.295Z,72.11
2022-11-29T16:24:29.207Z,72.06
2022-11-29T16:26:34.491Z,72.67
2022-11-29T16:28:42.155Z,72.41
2022-11-29T16:30:43.850Z,72.43
2022-11-29T16:32:47.323Z,72.60
2022-11-29T16:34:49.237Z,72.88
2022-11-29T16:37:05.269Z,72.83
2022-11-29T16:39:27.314Z,72.69
2022-11-29T16:41:34.754Z,72.42
2022-11-29T16:43:56.095Z,72.42
2022-11-29T16:46:22.720Z,72.76
2022-11-29T16:48:26.915Z,72.97
2022-11-29T16:50:32.548Z,73.26
2022-11-29T16:52:34.280Z,72.95
2022-11-29T16:54:35.960Z,72.84
2022-11-29T16:56:38.756Z,73.04
2022-11-29T16:59:20.956Z,72.47
2022-11-29T17:01:27.294Z,73.44
2022-11-29T17:03:28.909Z,73.41
2022-11-29T17:05:30.753Z,73.38
2022-11-29T17:07:36.093Z,74.00
2022-11-29T17:09:38.240Z,73.00
2022-11-29T17:11:39.827Z,71.90
2022-11-29T17:13:41.487Z,72.28
2022-11-29T17:16:01.321Z,72.54
2022-11-29T17:18:02.936Z,71.66
2022-11-29T17:20:06.983Z,72.22
2022-11-29T17:22:08.912Z,71.26
2022-11-29T17:24:13.654Z,71.42
2022-11-29T17:26:15.792Z,70.26
2022-11-29T17:28:17.389Z,70.71
2022-11-29T17:30:19.105Z,70.77
2022-11-29T17:32:26.244Z,70.41
2022-11-29T17:34:28.380Z,70.33
2022-11-29T17:36:30.770Z,70.42
2022-11-29T17:38:32.497Z,69.71
2022-11-29T17:40:34.212Z,70.07
2022-11-29T17:42:35.797Z,70.40
2022-11-29T17:44:37.546Z,70.67
2022-11-29T17:46:39.460Z,69.98
2022-11-29T17:48:42.779Z,70.07
2022-11-29T17:50:44.443Z,70.43
2022-11-29T17:52:46.131Z,70.72
2022-11-29T17:54:47.859Z,70.88
2022-11-29T17:56:50.071Z,71.46
2022-11-29T17:58:56.076Z,71.10
2022-11-29T18:01:13.095Z,71.17
2022-11-29T18:03:14.713Z,71.18
2022-11-29T18:05:16.465Z,71.51
2022-11-29T18:07:18.470Z,71.27
2022-11-29T18:09:20.265Z,70.92
2022-11-29T18:11:26.527Z,71.52
2022-11-29T18:13:28.117Z,71.35
2022-11-29T18:15:29.776Z,71.43
2022-11-29T18:17:31.633Z,72.13
2022-11-29T18:19:34.022Z,71.75
2022-11-29T18:21:35.880Z,71.69
2022-11-29T18:23:39.776Z,71.89
2022-11-29T18:25:41.294Z,72.03
2022-11-29T18:27:42.946Z,72.61
2022-11-29T18:29:44.509Z,72.96
2022-11-29T18:31:46.580Z,73.00
2022-11-29T18:33:50.962Z,73.84
2022-11-29T18:35:52.603Z,73.80
2022-11-29T18:38:14.548Z,73.70
2022-11-29T18:40:17.190Z,74.11
2022-11-29T18:42:18.779Z,75.47
2022-11-29T18:44:29.711Z,75.50
2022-11-29T18:46:32.922Z,75.59
2022-11-29T18:48:35.068Z,76.68
2022-11-29T18:50:36.674Z,76.27
2022-11-29T18:52:40.828Z,77.03
2022-11-29T18:54:42.525Z,76.77
2022-11-29T18:56:44.979Z,76.64
2022-11-29T18:58:47.989Z,76.87
2022-11-29T19:00:51.414Z,76.99
2022-11-29T19:02:53.462Z,76.22
2022-11-29T19:04:55.185Z,76.27
2022-11-29T19:06:56.842Z,76.73
2022-11-29T19:08:58.648Z,75.82
2022-11-29T19:11:11.227Z,75.85
2022-11-29T19:13:12.829Z,75.89
2022-11-29T19:15:14.644Z,76.16
2022-11-29T19:17:16.371Z,75.70
2022-11-29T19:19:19.077Z,74.45
2022-11-29T19:21:22.262Z,75.28
2022-11-29T19:23:23.946Z,75.16
2022-11-29T19:25:25.620Z,75.01
2022-11-29T19:27:27.216Z,75.03
2022-11-29T19:29:29.157Z,75.02
2022-11-29T19:31:30.823Z,75.58
2022-11-29T19:33:37.117Z,75.39
2022-11-29T19:35:38.827Z,74.93
2022-11-29T19:37:41.989Z,75.88
2022-11-29T19:39:44.516Z,75.23
2022-11-29T19:41:47.922Z,75.01
2022-11-29T19:43:50.232Z,75.20
2022-11-29T19:45:51.930Z,75.94
2022-11-29T19:47:53.558Z,75.35
2022-11-29T19:50:00.795Z,75.44
2022-11-29T19:52:04.091Z,74.81
2022-11-29T19:54:07.188Z,75.00
2022-11-29T19:56:11.959Z,75.11
2022-11-29T19:58:13.566Z,74.70
2022-11-29T20:00:15.832Z,74.55
2022-11-29T20:02:17.476Z,74.66
2022-11-29T20:04:19.226Z,73.91
2022-11-29T20:06:21.117Z,73.74
2022-11-29T20:08:23.115Z,73.21
2022-11-29T20:10:25.736Z,73.58
2022-11-29T20:12:27.368Z,73.68
2022-11-29T20:14:29.265Z,73.47
2022-11-29T20:16:31.524Z,73.16
2022-11-29T20:18:33.767Z,73.87
2022-11-29T20:20:35.823Z,73.04
2022-11-29T20:22:37.793Z,73.48
2022-11-29T20:24:45.089Z,73.67
2022-11-29T20:26:49.105Z,73.28
2022-11-29T20:28:51.170Z,73.80
2022-11-29T20:30:53.144Z,73.50
2022-11-29T20:32:55.035Z,73.67
2022-11-29T20:34:57.392Z,74.08
2022-11-29T20:37:10.423Z,73.49
2022-11-29T20:39:50.029Z,73.32
2022-11-29T20:41:54.599Z,73.29
2022-11-29T20:43:59.003Z,72.89
2022-11-29T20:46:00.789Z,72.90
2022-11-29T20:48:11.258Z,73.42
2022-11-29T20:50:24.716Z,73.74
2022-11-29T20:52:47.933Z,73.52
2022-11-29T20:54:49.464Z,73.80
2022-11-29T20:56:51.338Z,74.35
2022-11-29T20:58:52.869Z,74.53
2022-11-29T21:00:55.304Z,74.34
2022-11-29T21:02:56.909Z,74.13
2022-11-29T21:04:58.501Z,74.54
2022-11-29T21:07:00.120Z,74.04
2022-11-29T21:09:02.186Z,74.17
2022-11-29T21:11:06.711Z,73.93
2022-11-29T21:13:10.886Z,74.44
2022-11-29T21:15:14.181Z,74.86
2022-11-29T21:17:16.189Z,74.23
2022-11-29T21:19:24.784Z,74.28
2022-11-29T21:21:38.279Z,73.60
2022-11-29T21:24:03.688Z,74.60
2022-11-29T21:26:08.560Z,74.29
2022-11-29T21:28:12.768Z,74.04
2022-11-29T21:30:20.278Z,74.15
2022-11-29T21:32:24.042Z,74.19
2022-11-29T21:34:25.637Z,74.64
2022-11-29T21:36:27.810Z,75.23
2022-11-29T21:38:29.528Z,75.18
2022-11-29T21:40:31.132Z,75.10
2022-11-29T21:42:32.775Z,74.57
2022-11-29T21:44:34.339Z,74.92
2022-11-29T21:46:36.284Z,75.86
2022-11-29T21:48:38.411Z,76.25
2022-11-29T21:50:40.059Z,76.14
2022-11-29T21:52:41.796Z,76.95
2022-11-29T21:54:43.810Z,76.88
2022-11-29T21:56:45.654Z,77.35
2022-11-29T21:58:47.274Z,77.05
2022-11-29T22:00:49.214Z,78.29
2022-11-29T22:02:51.227Z,77.90
2022-11-29T22:04:52.896Z,77.34
2022-11-29T22:06:54.811Z,77.91
2022-11-29T22:08:57.009Z,77.43
2022-11-29T22:11:12.115Z,77.81
2022-11-29T22:13:13.782Z,77.26
2022-11-29T22:15:19.032Z,77.62
2022-11-29T22:17:23.272Z,77.36
2022-11-29T22:19:35.250Z,77.56
2022-11-29T22:21:36.915Z,77.11
2022-11-29T22:23:38.513Z,76.48
2022-11-29T22:25:40.204Z,76.75
2022-11-29T22:27:41.846Z,76.38
2022-11-29T22:29:43.458Z,77.79
2022-11-29T22:31:47.215Z,78.42
2022-11-29T22:33:48.873Z,78.68
2022-11-29T22:35:50.469Z,77.67
2022-11-29T22:37:52.613Z,78.00
2022-11-29T22:39:54.289Z,78.16
2022-11-29T22:41:56.096Z,78.01
2022-11-29T22:43:57.889Z,78.82
2022-11-29T22:46:08.704Z,78.89
2022-11-29T22:48:10.281Z,79.40
2022-11-29T22:50:12.246Z,80.15
2022-11-29T22:52:13.880Z,80.03
2022-11-29T22:54:16.527Z,79.41
2022-11-29T22:56:18.819Z,79.97
2022-11-29T22:58:20.503Z,78.84
2022-11-29T23:00:22.185Z,78.99
2022-11-29T23:02:23.904Z,79.20
2022-11-29T23:04:25.519Z,80.17
2022-11-29T23:06:30.167Z,80.01
2022-11-29T23:08:32.447Z,79.92
2022-11-29T23:10:34.055Z,80.00
2022-11-29T23:12:35.883Z,79.51
2022-11-29T23:14:37.572Z,79.23
2022-11-29T23:16:39.388Z,79.11
2022-11-29T23:18:46.160Z,79.27
2022-11-29T23:20:47.751Z,79.11
2022-11-29T23:22:49.361Z,78.71
2022-11-29T23:24:51.020Z,78.78
2022-11-29T23:26:52.602Z,79.07
2022-11-29T23:28:54.799Z,78.37
2022-11-29T23:30:56.506Z,78.85
2022-11-29T23:32:58.035Z,78.64
2022-11-29T23:34:59.600Z,79.39
2022-11-29T23:37:01.445Z,78.37
2022-11-29T23:39:03.139Z,78.45
2022-11-29T23:41:06.122Z,79.26
2022-11-29T23:43:07.738Z,78.98
2022-11-29T23:45:09.776Z,79.23
2022-11-29T23:47:11.444Z,78.47
2022-11-29T23:49:13.200Z,79.10
2022-11-29T23:51:15.020Z,78.67
2022-11-29T23:53:19.189Z,79.43
2022-11-29T23:55:22.122Z,79.55
2022-11-29T23:57:23.894Z,79.40
2022-11-29T23:59:25.524Z,79.24
